createdAt,value
2022-12-15T00:00:57.438Z,5.63
2022-12-15T00:03:46.420Z,4.23
2022-12-15T00:06:37.284Z,3.40
2022-12-15T00:09:30.727Z,3.50
2022-12-15T00:12:23.872Z,3.17
2022-12-15T00:15:11.914Z,3.40
2022-12-15T00:17:57.541Z,2.97
2022-12-15T00:20:43.240Z,2.87
2022-12-15T00:23:36.903Z,4.80
2022-12-15T00:26:25.964Z,4.97
2022-12-15T00:29:15.825Z,5.27
2022-12-15T00:32:27.652Z,4.50
2022-12-15T00:35:20.884Z,4.50
2022-12-15T00:38:09.572Z,4.87
2022-12-15T00:40:37.074Z,4.37
2022-12-15T00:43:12.217Z,4.10
2022-12-15T00:46:06.473Z,3.13
2022-12-15T00:48:33.779Z,2.57
2022-12-15T00:51:02.955Z,2.77
2022-12-15T00:53:53.238Z,2.73
2022-12-15T00:56:39.027Z,2.40
2022-12-15T00:59:34.651Z,2.20
2022-12-15T01:02:30.769Z,2.10
2022-12-15T01:05:19.038Z,2.73
2022-12-15T01:08:08.843Z,2.03
2022-12-15T01:10:54.684Z,2.70
2022-12-15T01:13:49.682Z,2.20
2022-12-15T01:16:40.060Z,2.70
2022-12-15T01:19:32.255Z,2.23
2022-12-15T01:21:59.557Z,2.60
2022-12-15T01:24:42.151Z,2.13
2022-12-15T01:27:13.987Z,1.87
2022-12-15T01:29:41.080Z,1.35
2022-12-15T01:32:13.384Z,1.30
2022-12-15T01:34:43.434Z,1.87
2022-12-15T01:37:10.833Z,2.40
2022-12-15T01:40:09.929Z,2.90
2022-12-15T01:42:39.736Z,2.80
2022-12-15T01:45:27.165Z,2.77
2022-12-15T01:48:04.478Z,2.73
2022-12-15T01:50:45.241Z,3.47
2022-12-15T01:53:28.396Z,3.30
2022-12-15T01:56:13.163Z,4.53
2022-12-15T01:58:51.346Z,3.50
2022-12-15T02:01:26.635Z,3.33
2022-12-15T02:03:57.013Z,2.50
2022-12-15T02:06:27.854Z,2.70
2022-12-15T02:08:59.320Z,3.87
2022-12-15T02:12:02.420Z,4.13
2022-12-15T02:14:58.101Z,5.28
2022-12-15T02:17:41.909Z,4.80
2022-12-15T02:20:17.218Z,4.93
2022-12-15T02:23:20.710Z,4.07
2022-12-15T02:26:22.058Z,3.50
2022-12-15T02:29:16.109Z,3.37
2022-12-15T02:32:06.020Z,3.83
2022-12-15T02:35:10.160Z,3.40
2022-12-15T02:37:43.627Z,3.60
2022-12-15T02:40:20.640Z,3.40
2022-12-15T02:43:01.564Z,4.10
2022-12-15T02:46:00.242Z,4.00
2022-12-15T02:48:41.205Z,3.90
2022-12-15T02:51:40.921Z,4.17
2022-12-15T02:54:15.480Z,4.10
2022-12-15T02:57:04.264Z,5.30
2022-12-15T03:00:02.516Z,4.80
2022-12-15T03:02:47.252Z,4.80
2022-12-15T03:05:18.560Z,5.45
2022-12-15T03:08:06.337Z,5.30
2022-12-15T03:10:33.699Z,6.13
2022-12-15T03:13:03.559Z,5.47
2022-12-15T03:15:35.591Z,6.37
2022-12-15T03:18:05.763Z,6.60
2022-12-15T03:20:38.424Z,5.03
2022-12-15T03:23:05.873Z,6.23
2022-12-15T03:25:35.231Z,6.07
2022-12-15T03:28:02.556Z,6.00
2022-12-15T03:30:32.129Z,7.47
2022-12-15T03:32:59.461Z,5.73
2022-12-15T03:36:00.701Z,7.03
2022-12-15T03:38:40.229Z,6.20
2022-12-15T03:41:21.127Z,5.90
2022-12-15T03:43:51.019Z,4.63
2022-12-15T03:46:36.501Z,5.13
2022-12-15T03:49:09.300Z,5.33
2022-12-15T03:52:03.455Z,4.70
2022-12-15T03:54:39.948Z,5.57
2022-12-15T03:57:12.462Z,4.97
2022-12-15T04:00:29.068Z,4.07
2022-12-15T04:03:05.551Z,3.53
2022-12-15T04:10:15.930Z,6.50
2022-12-15T04:13:10.140Z,5.70
2022-12-15T04:24:39.987Z,4.27
2022-12-15T04:27:44.412Z,4.33
2022-12-15T04:30:40.883Z,4.90
2022-12-15T04:33:48.596Z,4.40
2022-12-15T04:36:41.337Z,4.63
2022-12-15T04:39:37.372Z,4.20
2022-12-15T04:45:39.858Z,5.10
2022-12-15T04:48:36.893Z,5.27
2022-12-15T04:51:29.861Z,5.13
2022-12-15T04:54:38.807Z,5.73
2022-12-15T05:00:56.401Z,4.90
2022-12-15T05:03:47.960Z,4.87
2022-12-15T05:09:40.423Z,4.83
2022-12-15T05:12:39.469Z,4.97
2022-12-15T05:15:30.914Z,4.63
2022-12-15T05:18:29.124Z,4.33
2022-12-15T05:21:17.211Z,4.23
2022-12-15T05:24:56.131Z,3.10
2022-12-15T05:27:54.197Z,3.70
2022-12-15T05:31:12.803Z,4.30
2022-12-15T05:33:50.725Z,4.50
2022-12-15T05:36:29.754Z,4.63
2022-12-15T05:39:08.019Z,3.70
2022-12-15T05:41:40.502Z,3.00
2022-12-15T05:44:21.658Z,3.20
2022-12-15T05:46:56.047Z,3.03
2022-12-15T05:49:29.759Z,4.33
2022-12-15T05:52:12.516Z,4.73
2022-12-15T05:54:52.834Z,4.40
2022-12-15T05:57:26.472Z,3.90
2022-12-15T06:00:44.059Z,4.07
2022-12-15T06:03:29.244Z,4.13
2022-12-15T06:06:13.768Z,3.73
2022-12-15T06:12:06.911Z,3.47
2022-12-15T06:27:43.692Z,3.10
2022-12-15T06:30:17.439Z,2.40
2022-12-15T06:32:56.624Z,2.60
2022-12-15T06:35:52.812Z,2.17
2022-12-15T06:38:55.345Z,2.90
2022-12-15T06:41:26.851Z,2.33
2022-12-15T06:44:03.352Z,1.87
2022-12-15T06:46:35.206Z,2.73
2022-12-15T06:49:02.506Z,1.50
2022-12-15T06:51:34.865Z,2.37
2022-12-15T06:54:02.404Z,2.50
2022-12-15T06:56:34.642Z,1.63
2022-12-15T07:01:56.384Z,1.93
2022-12-15T07:04:29.595Z,2.17
2022-12-15T07:06:56.967Z,1.80
2022-12-15T07:09:28.611Z,2.00
2022-12-15T07:12:03.285Z,2.17
2022-12-15T07:14:37.936Z,1.70
2022-12-15T07:17:16.932Z,1.57
2022-12-15T07:19:47.060Z,1.57
2022-12-15T07:22:16.914Z,2.10
2022-12-15T07:24:47.111Z,2.30
2022-12-15T07:27:14.671Z,1.93
2022-12-15T07:29:42.375Z,1.70
2022-12-15T07:32:09.658Z,1.63
2022-12-15T07:34:43.115Z,2.20
2022-12-15T07:37:10.532Z,2.03
2022-12-15T07:39:37.699Z,1.90
2022-12-15T07:42:07.030Z,1.70
2022-12-15T07:44:34.182Z,2.33
2022-12-15T07:47:01.374Z,1.57
2022-12-15T07:49:28.900Z,1.80
2022-12-15T07:51:59.164Z,1.87
2022-12-15T07:54:31.113Z,1.50
2022-12-15T07:57:02.777Z,1.60
2022-12-15T07:59:35.786Z,2.13
2022-12-15T08:02:04.659Z,2.07
2022-12-15T08:04:33.562Z,1.83
2022-12-15T08:07:01.211Z,1.60
2022-12-15T08:09:28.549Z,1.33
2022-12-15T08:11:55.816Z,1.93
2022-12-15T08:14:25.766Z,1.40
2022-12-15T08:16:52.995Z,1.50
2022-12-15T08:19:20.221Z,1.40
2022-12-15T08:21:47.692Z,1.77
2022-12-15T08:24:15.831Z,1.80
2022-12-15T08:26:44.193Z,1.80
2022-12-15T08:32:08.071Z,1.37
2022-12-15T08:34:35.797Z,1.43
2022-12-15T08:37:03.223Z,1.93
2022-12-15T08:39:30.678Z,1.73
2022-12-15T08:41:57.770Z,1.70
2022-12-15T08:44:30.021Z,1.83
2022-12-15T08:46:57.328Z,1.27
2022-12-15T08:49:24.626Z,1.77
2022-12-15T08:51:51.861Z,1.40
2022-12-15T08:54:20.778Z,1.37
2022-12-15T08:56:48.744Z,2.20
2022-12-15T08:59:16.058Z,2.00
2022-12-15T09:01:43.780Z,1.93
2022-12-15T09:04:11.048Z,1.67
2022-12-15T09:06:41.858Z,1.93
2022-12-15T09:09:13.674Z,1.50
2022-12-15T09:11:40.805Z,2.10
2022-12-15T09:14:08.181Z,1.93
2022-12-15T09:16:35.746Z,2.67
2022-12-15T09:19:07.359Z,2.47
2022-12-15T09:21:34.653Z,2.97
2022-12-15T09:24:02.978Z,3.37
2022-12-15T09:26:32.035Z,3.70
2022-12-15T09:29:00.074Z,4.40
2022-12-15T09:31:29.868Z,4.00
2022-12-15T09:33:58.932Z,3.13
2022-12-15T09:36:27.373Z,2.60
2022-12-15T09:38:58.834Z,3.20
2022-12-15T09:41:37.028Z,2.35
2022-12-15T09:44:19.153Z,3.40
2022-12-15T09:47:14.618Z,2.88
2022-12-15T09:49:49.025Z,2.50
2022-12-15T09:52:25.588Z,4.60
2022-12-15T09:54:56.548Z,4.10
2022-12-15T09:57:48.309Z,3.90
2022-12-15T10:00:25.796Z,3.57
2022-12-15T10:03:18.440Z,4.40
2022-12-15T10:06:20.897Z,3.40
2022-12-15T10:09:00.629Z,4.10
2022-12-15T10:11:36.870Z,4.83
2022-12-15T10:14:42.061Z,10.40
2022-12-15T10:17:21.735Z,12.20
2022-12-15T10:20:09.181Z,11.60
2022-12-15T10:22:37.848Z,10.07
2022-12-15T10:25:30.064Z,9.17
2022-12-15T10:28:25.315Z,8.77
2022-12-15T10:31:06.581Z,8.48
2022-12-15T10:33:39.959Z,6.63
2022-12-15T10:36:14.263Z,8.47
2022-12-15T10:38:50.400Z,10.48
2022-12-15T10:41:26.429Z,9.70
2022-12-15T10:43:57.583Z,8.00
2022-12-15T10:46:29.580Z,7.77
2022-12-15T10:49:09.101Z,8.97
2022-12-15T10:51:44.855Z,8.10
2022-12-15T10:54:14.967Z,8.30
2022-12-15T10:56:58.375Z,7.33
2022-12-15T10:59:44.782Z,6.50
2022-12-15T11:02:27.813Z,7.23
2022-12-15T11:05:05.805Z,7.53
2022-12-15T11:07:48.203Z,8.57
2022-12-15T11:10:24.514Z,9.47
2022-12-15T11:13:21.098Z,9.83
2022-12-15T11:15:51.246Z,8.80
2022-12-15T11:18:51.471Z,7.53
2022-12-15T11:21:50.570Z,8.57
2022-12-15T11:24:50.205Z,7.17
2022-12-15T11:27:39.160Z,8.37
2022-12-15T11:30:29.837Z,7.80
2022-12-15T11:33:00.743Z,6.17
2022-12-15T11:35:46.908Z,5.50
2022-12-15T11:38:38.040Z,5.43
2022-12-15T11:41:38.862Z,4.90
2022-12-15T11:44:12.442Z,5.47
2022-12-15T11:47:28.162Z,5.63
2022-12-15T11:50:23.974Z,5.67
2022-12-15T11:53:50.772Z,4.87
2022-12-15T11:56:35.677Z,3.80
2022-12-15T11:59:27.266Z,4.40
2022-12-15T12:02:32.522Z,4.43
2022-12-15T12:05:33.353Z,5.82
2022-12-15T12:08:17.223Z,6.10
2022-12-15T12:10:54.220Z,5.90
2022-12-15T12:13:29.207Z,5.03
2022-12-15T12:16:09.482Z,4.87
2022-12-15T12:18:44.581Z,4.70
2022-12-15T12:21:27.906Z,5.53
2022-12-15T12:24:29.979Z,5.73
2022-12-15T12:27:00.607Z,5.93
2022-12-15T12:29:38.161Z,4.97
2022-12-15T12:32:30.357Z,5.60
2022-12-15T12:35:32.011Z,4.80
2022-12-15T12:38:03.262Z,8.50
2022-12-15T12:40:59.650Z,8.17
2022-12-15T12:43:36.385Z,7.10
2022-12-15T12:46:26.977Z,8.63
2022-12-15T12:49:02.471Z,9.47
2022-12-15T12:51:56.728Z,8.07
2022-12-15T12:54:36.587Z,7.00
2022-12-15T12:57:12.932Z,6.37
2022-12-15T13:00:03.410Z,7.33
2022-12-15T13:02:38.223Z,6.67
2022-12-15T13:05:24.401Z,6.60
2022-12-15T13:08:15.884Z,6.70
2022-12-15T13:10:48.277Z,8.23
2022-12-15T13:13:29.954Z,6.23
2022-12-15T13:16:27.927Z,6.30
2022-12-15T13:19:03.764Z,5.80
2022-12-15T13:21:45.663Z,5.63
2022-12-15T13:24:41.423Z,6.83
2022-12-15T13:27:14.863Z,6.60
2022-12-15T13:30:04.593Z,5.90
2022-12-15T13:32:45.001Z,5.43
2022-12-15T13:35:12.780Z,6.30
2022-12-15T13:37:51.214Z,6.73
2022-12-15T13:40:36.320Z,6.03
2022-12-15T13:43:05.646Z,5.03
2022-12-15T13:45:56.321Z,5.47
2022-12-15T13:48:36.262Z,5.23
2022-12-15T13:51:21.577Z,6.13
2022-12-15T13:53:56.209Z,5.00
2022-12-15T13:56:26.215Z,4.30
2022-12-15T13:59:30.023Z,4.70
2022-12-15T14:01:57.471Z,6.03
2022-12-15T14:04:24.556Z,5.30
2022-12-15T14:07:02.820Z,4.73
2022-12-15T14:09:39.708Z,4.37
2022-12-15T14:12:13.850Z,3.83
2022-12-15T14:14:49.031Z,4.20
2022-12-15T14:17:18.685Z,4.43
2022-12-15T14:19:51.955Z,4.47
2022-12-15T14:22:31.777Z,3.77
2022-12-15T14:25:13.747Z,3.13
2022-12-15T14:27:40.751Z,3.88
2022-12-15T14:30:33.207Z,3.80
2022-12-15T14:33:06.931Z,3.88
2022-12-15T14:35:40.641Z,4.10
2022-12-15T14:38:12.784Z,4.77
2022-12-15T14:40:43.681Z,3.53
2022-12-15T14:43:32.058Z,3.83
2022-12-15T14:46:16.760Z,3.43
2022-12-15T14:48:56.827Z,3.60
2022-12-15T14:51:29.767Z,4.53
2022-12-15T14:53:56.947Z,4.07
2022-12-15T14:56:35.535Z,3.70
2022-12-15T14:59:23.989Z,3.77
2022-12-15T15:01:59.199Z,3.00
2022-12-15T15:04:57.958Z,2.97
2022-12-15T15:07:25.060Z,3.17
2022-12-15T15:09:53.104Z,3.83
2022-12-15T15:12:22.568Z,3.40
2022-12-15T15:14:59.175Z,3.13
2022-12-15T15:17:33.746Z,3.00
2022-12-15T15:20:18.036Z,3.77
2022-12-15T15:23:13.382Z,2.80
2022-12-15T15:25:56.888Z,2.60
2022-12-15T15:28:57.586Z,2.83
2022-12-15T15:31:40.904Z,2.37
2022-12-15T15:34:09.163Z,2.60
2022-12-15T15:36:50.854Z,2.77
2022-12-15T15:39:30.151Z,2.77
2022-12-15T15:42:13.355Z,2.75
2022-12-15T15:44:40.560Z,3.30
2022-12-15T15:47:25.158Z,3.33
2022-12-15T15:49:54.966Z,2.97
2022-12-15T15:52:23.025Z,3.20
2022-12-15T15:54:51.893Z,3.10
2022-12-15T15:57:19.359Z,3.13
2022-12-15T15:59:47.101Z,3.40
2022-12-15T16:02:14.870Z,3.60
2022-12-15T16:04:43.198Z,3.33
2022-12-15T16:07:22.791Z,4.20
2022-12-15T16:10:10.959Z,4.40
2022-12-15T16:12:53.416Z,3.33
2022-12-15T16:15:38.440Z,3.70
2022-12-15T16:18:08.422Z,3.83
2022-12-15T16:20:37.299Z,3.57
2022-12-15T16:23:15.247Z,3.27
2022-12-15T16:29:22.072Z,3.40
2022-12-15T16:31:57.708Z,2.80
2022-12-15T16:34:25.047Z,3.30
2022-12-15T16:36:53.549Z,3.63
2022-12-15T16:39:58.067Z,3.10
2022-12-15T16:42:25.121Z,2.70
2022-12-15T16:44:53.922Z,2.80
2022-12-15T16:47:21.080Z,3.47
2022-12-15T16:49:48.077Z,2.97
2022-12-15T16:52:20.501Z,3.63
2022-12-15T16:54:49.205Z,2.75
2022-12-15T16:57:16.448Z,4.10
2022-12-15T16:59:43.506Z,3.53
2022-12-15T17:02:38.625Z,3.83
2022-12-15T17:05:06.685Z,3.97
2022-12-15T17:07:33.727Z,4.30
2022-12-15T17:10:01.528Z,4.27
2022-12-15T17:12:28.824Z,3.10
2022-12-15T17:14:57.626Z,4.27
2022-12-15T17:17:26.500Z,4.63
2022-12-15T17:22:41.191Z,4.00
2022-12-15T17:25:37.557Z,3.67
2022-12-15T17:28:13.918Z,3.90
2022-12-15T17:30:41.204Z,3.83
2022-12-15T17:33:34.061Z,3.50
2022-12-15T17:36:15.582Z,3.57
2022-12-15T17:38:42.746Z,3.93
2022-12-15T17:41:35.041Z,3.83
2022-12-15T17:44:37.403Z,3.20
2022-12-15T17:47:15.723Z,3.50
2022-12-15T17:50:16.868Z,3.70
2022-12-15T17:52:47.108Z,3.53
2022-12-15T17:55:51.902Z,4.13
2022-12-15T17:59:24.554Z,3.73
2022-12-15T18:01:52.577Z,3.90
2022-12-15T18:04:19.969Z,4.27
2022-12-15T18:07:02.858Z,5.43
2022-12-15T18:09:33.920Z,4.37
2022-12-15T18:12:01.234Z,5.83
2022-12-15T18:14:30.850Z,5.57
2022-12-15T18:17:16.258Z,5.80
2022-12-15T18:19:43.314Z,4.40
2022-12-15T18:22:28.834Z,4.80
2022-12-15T18:24:55.958Z,4.07
2022-12-15T18:27:41.380Z,4.80
2022-12-15T18:30:17.148Z,3.93
2022-12-15T18:32:48.633Z,5.10
2022-12-15T18:36:27.678Z,5.20
2022-12-15T18:39:40.670Z,5.30
2022-12-15T18:42:21.474Z,4.50
2022-12-15T18:44:52.968Z,4.43
2022-12-15T18:47:24.609Z,4.73
2022-12-15T18:49:54.569Z,5.38
2022-12-15T18:52:27.594Z,4.50
2022-12-15T18:54:57.349Z,5.60
2022-12-15T18:57:30.959Z,5.20
2022-12-15T19:00:27.803Z,4.67
2022-12-15T19:02:58.182Z,4.40
2022-12-15T19:05:34.898Z,4.50
2022-12-15T19:08:26.730Z,4.47
2022-12-15T19:10:59.861Z,5.20
2022-12-15T19:13:31.649Z,4.87
2022-12-15T19:16:14.667Z,5.57
2022-12-15T19:19:00.989Z,4.67
2022-12-15T19:21:53.751Z,5.17
2022-12-15T19:24:44.726Z,6.05
2022-12-15T19:27:13.585Z,5.10
2022-12-15T19:29:41.491Z,5.30
2022-12-15T19:32:26.886Z,4.53
2022-12-15T19:34:56.414Z,5.47
2022-12-15T19:37:33.092Z,4.77
2022-12-15T19:40:01.337Z,5.23
2022-12-15T19:42:33.920Z,5.93
2022-12-15T19:45:01.987Z,5.80
2022-12-15T19:47:29.773Z,5.07
2022-12-15T19:49:56.948Z,5.37
2022-12-15T19:52:24.064Z,5.60
2022-12-15T19:54:51.182Z,5.57
2022-12-15T19:57:20.646Z,6.23
2022-12-15T19:59:47.674Z,7.47
2022-12-15T20:02:33.325Z,7.27
2022-12-15T20:05:03.309Z,6.60
2022-12-15T20:07:36.657Z,6.03
2022-12-15T20:10:05.544Z,6.80
2022-12-15T20:12:35.177Z,5.87
2022-12-15T20:15:02.501Z,5.33
2022-12-15T20:17:29.703Z,5.30
2022-12-15T20:19:56.632Z,4.60
2022-12-15T20:22:26.179Z,4.97
2022-12-15T20:24:53.417Z,5.03
2022-12-15T20:27:20.384Z,5.10
2022-12-15T20:29:49.758Z,5.47
2022-12-15T20:32:19.727Z,5.30
2022-12-15T20:34:50.386Z,8.00
2022-12-15T20:37:28.227Z,9.57
2022-12-15T20:39:57.700Z,12.00
2022-12-15T20:42:25.582Z,12.10
2022-12-15T20:44:54.265Z,10.60
2022-12-15T20:47:24.528Z,9.93
2022-12-15T20:49:52.956Z,10.60
2022-12-15T20:52:23.088Z,9.33
2022-12-15T20:54:55.866Z,10.83
2022-12-15T20:57:29.083Z,11.27
2022-12-15T21:00:49.511Z,14.60
2022-12-15T21:03:45.156Z,15.03
2022-12-15T21:07:10.447Z,16.03
2022-12-15T21:09:44.375Z,13.20
2022-12-15T21:12:59.254Z,14.10
2022-12-15T21:19:17.970Z,12.87
2022-12-15T21:21:37.556Z,14.20
2022-12-15T21:24:23.716Z,14.33
2022-12-15T21:26:51.655Z,11.67
2022-12-15T21:29:21.539Z,11.93
2022-12-15T21:31:49.089Z,11.47
2022-12-15T21:34:18.221Z,10.40
2022-12-15T21:36:49.746Z,8.93
2022-12-15T21:39:33.608Z,8.47
2022-12-15T21:42:06.263Z,8.23
2022-12-15T21:44:39.960Z,7.97
2022-12-15T21:47:26.452Z,6.53
2022-12-15T21:49:57.796Z,6.27
2022-12-15T21:52:26.656Z,5.50
2022-12-15T21:54:53.706Z,5.07
2022-12-15T21:57:30.698Z,4.87
2022-12-15T22:00:04.661Z,5.37
2022-12-15T22:02:39.070Z,4.53
2022-12-15T22:05:22.372Z,4.10
2022-12-15T22:07:50.158Z,4.97
2022-12-15T22:10:23.835Z,3.70
2022-12-15T22:12:59.093Z,3.40
2022-12-15T22:15:28.120Z,3.63
2022-12-15T22:17:56.054Z,4.40
2022-12-15T22:20:26.102Z,4.60
2022-12-15T22:22:55.513Z,4.10
2022-12-15T22:25:25.628Z,3.23
2022-12-15T22:27:53.009Z,3.83
2022-12-15T22:30:28.482Z,3.70
2022-12-15T22:32:55.432Z,4.00
2022-12-15T22:35:25.013Z,3.47
2022-12-15T22:37:56.073Z,3.17
2022-12-15T22:40:24.233Z,3.93
2022-12-15T22:42:57.125Z,3.43
2022-12-15T22:45:24.665Z,3.47
2022-12-15T22:47:53.122Z,4.23
2022-12-15T22:50:25.532Z,3.53
2022-12-15T22:52:53.002Z,3.57
2022-12-15T22:55:24.606Z,4.00
2022-12-15T22:58:03.049Z,4.17
2022-12-15T23:00:29.969Z,4.47
2022-12-15T23:05:30.083Z,4.70
2022-12-15T23:07:56.984Z,4.47
2022-12-15T23:10:46.054Z,4.90
2022-12-15T23:13:13.019Z,4.30
2022-12-15T23:15:58.960Z,4.17
2022-12-15T23:18:25.867Z,4.03
2022-12-15T23:20:53.445Z,4.10
2022-12-15T23:23:21.828Z,3.97
2022-12-15T23:25:48.707Z,4.77
2022-12-15T23:28:15.831Z,4.00
2022-12-15T23:30:47.645Z,4.13
2022-12-15T23:33:17.302Z,4.03
2022-12-15T23:35:44.585Z,3.93
2022-12-15T23:38:11.916Z,4.40
2022-12-15T23:40:52.602Z,4.47
2022-12-15T23:43:21.217Z,4.33
2022-12-15T23:46:00.229Z,3.13
2022-12-15T23:48:35.422Z,3.40
2022-12-15T23:51:19.832Z,3.93
2022-12-15T23:53:47.850Z,3.00
2022-12-15T23:56:20.963Z,3.40
2022-12-15T23:58:54.370Z,3.73
